createdAt,value
2023-03-19T00:01:11.767Z,28.63
2023-03-19T00:03:40.524Z,31.50
2023-03-19T00:06:09.371Z,34.67
2023-03-19T00:08:37.956Z,31.40
2023-03-19T00:11:12.710Z,35.13
2023-03-19T00:13:41.465Z,54.23
2023-03-19T00:16:10.230Z,41.00
2023-03-19T00:18:38.999Z,40.30
2023-03-19T00:21:07.801Z,44.73
2023-03-19T00:23:37.634Z,60.00
2023-03-19T00:26:06.891Z,47.87
2023-03-19T00:28:38.175Z,56.60
2023-03-19T00:31:11.894Z,77.40
2023-03-19T00:33:41.282Z,82.13
2023-03-19T00:36:11.198Z,59.30
2023-03-19T00:38:39.964Z,66.77
2023-03-19T00:41:08.876Z,64.73
2023-03-19T00:43:38.992Z,63.03
2023-03-19T00:46:08.220Z,73.90
2023-03-19T00:48:36.835Z,71.43
2023-03-19T00:51:06.625Z,60.40
2023-03-19T00:53:38.177Z,75.93
2023-03-19T00:56:07.950Z,82.23
2023-03-19T00:58:38.987Z,82.53
2023-03-19T01:01:08.460Z,88.20
2023-03-19T01:03:37.234Z,72.27
2023-03-19T01:06:06.369Z,80.83
2023-03-19T01:08:34.937Z,93.97
2023-03-19T01:11:08.391Z,84.13
2023-03-19T01:13:39.191Z,95.13
2023-03-19T01:16:08.809Z,70.13
2023-03-19T01:18:37.686Z,95.50
2023-03-19T01:21:07.887Z,79.97
2023-03-19T01:23:36.475Z,72.07
2023-03-19T01:26:05.126Z,77.27
2023-03-19T01:28:33.947Z,73.33
2023-03-19T01:31:07.076Z,75.43
2023-03-19T01:33:35.776Z,69.87
2023-03-19T01:36:05.639Z,73.27
2023-03-19T01:38:34.388Z,74.07
2023-03-19T01:41:03.263Z,88.60
2023-03-19T01:43:32.889Z,79.47
2023-03-19T01:46:07.594Z,75.57
2023-03-19T01:48:41.127Z,73.73
2023-03-19T01:51:12.469Z,84.93
2023-03-19T01:53:43.390Z,70.23
2023-03-19T01:56:16.000Z,79.07
2023-03-19T01:58:47.771Z,80.97
2023-03-19T02:01:17.894Z,91.83
2023-03-19T02:03:47.631Z,96.47
2023-03-19T02:06:16.936Z,86.20
2023-03-19T02:08:46.192Z,85.00
2023-03-19T02:11:15.996Z,81.37
2023-03-19T02:13:45.325Z,76.13
2023-03-19T02:16:14.034Z,85.07
2023-03-19T02:18:44.557Z,77.77
2023-03-19T02:21:17.715Z,76.17
2023-03-19T02:23:54.791Z,75.03
2023-03-19T02:26:26.250Z,83.03
2023-03-19T02:28:55.506Z,86.23
2023-03-19T02:31:24.751Z,79.77
2023-03-19T02:34:01.482Z,91.13
2023-03-19T02:36:35.176Z,99.77
2023-03-19T02:39:07.571Z,105.07
2023-03-19T02:41:40.133Z,97.57
2023-03-19T02:44:11.946Z,116.47
2023-03-19T02:46:40.663Z,107.17
2023-03-19T02:49:09.250Z,27.77
2023-03-19T02:51:37.822Z,27.57
2023-03-19T02:54:06.719Z,60.23
2023-03-19T02:56:37.056Z,77.23
2023-03-19T02:59:05.597Z,80.33
2023-03-19T03:01:34.204Z,80.03
2023-03-19T03:04:02.847Z,99.53
2023-03-19T03:06:31.465Z,93.60
2023-03-19T03:09:00.056Z,94.80
2023-03-19T03:11:28.725Z,101.93
2023-03-19T03:13:59.072Z,98.40
2023-03-19T03:16:27.915Z,99.30
2023-03-19T03:18:56.529Z,93.53
2023-03-19T03:21:25.746Z,98.70
2023-03-19T03:23:54.443Z,99.83
2023-03-19T03:26:23.024Z,101.13
2023-03-19T03:28:52.340Z,101.80
2023-03-19T03:31:22.732Z,103.57
2023-03-19T03:33:52.021Z,107.60
2023-03-19T03:36:20.714Z,100.87
2023-03-19T03:38:49.336Z,74.27
2023-03-19T03:41:18.113Z,67.07
2023-03-19T03:43:46.692Z,64.30
2023-03-19T03:46:15.316Z,68.07
2023-03-19T03:48:45.338Z,70.40
2023-03-19T03:51:13.982Z,74.10
2023-03-19T03:53:42.580Z,66.10
2023-03-19T03:56:11.177Z,64.60
2023-03-19T03:58:39.774Z,65.33
2023-03-19T04:01:09.981Z,89.33
2023-03-19T04:03:38.938Z,83.60
2023-03-19T04:06:09.245Z,91.93
2023-03-19T04:08:37.850Z,96.60
2023-03-19T04:11:08.496Z,104.50
2023-03-19T04:13:37.916Z,106.90
2023-03-19T04:16:06.963Z,84.37
2023-03-19T04:18:35.767Z,84.50
2023-03-19T04:21:05.014Z,90.13
2023-03-19T04:23:35.361Z,78.57
2023-03-19T04:26:05.927Z,87.87
2023-03-19T04:28:34.599Z,90.20
2023-03-19T04:31:03.796Z,92.40
2023-03-19T04:33:32.467Z,95.33
2023-03-19T04:36:01.500Z,83.40
2023-03-19T04:38:30.196Z,62.13
2023-03-19T04:41:00.276Z,63.53
2023-03-19T04:43:28.879Z,59.43
2023-03-19T04:45:57.537Z,61.17
2023-03-19T04:48:26.745Z,65.30
2023-03-19T04:50:57.298Z,66.00
2023-03-19T04:53:26.130Z,72.43
2023-03-19T04:55:54.688Z,86.40
2023-03-19T04:58:24.881Z,87.80
2023-03-19T05:00:53.991Z,89.50
2023-03-19T05:03:22.814Z,86.47
2023-03-19T05:05:51.445Z,100.83
2023-03-19T05:08:19.998Z,96.93
2023-03-19T05:10:48.602Z,92.73
2023-03-19T05:13:18.089Z,118.90
2023-03-19T05:15:49.348Z,99.17
2023-03-19T05:18:17.936Z,97.97
2023-03-19T05:20:47.031Z,102.67
2023-03-19T05:23:15.766Z,95.17
2023-03-19T05:25:44.353Z,104.30
2023-03-19T05:28:13.105Z,97.73
2023-03-19T05:30:41.806Z,100.23
2023-03-19T05:33:11.886Z,102.20
2023-03-19T05:35:40.701Z,95.37
2023-03-19T05:38:09.709Z,82.60
2023-03-19T05:40:38.336Z,75.63
2023-03-19T05:43:06.901Z,81.73
2023-03-19T05:45:36.028Z,73.43
2023-03-19T05:48:04.615Z,72.77
2023-03-19T05:50:35.105Z,73.57
2023-03-19T05:53:03.860Z,73.63
2023-03-19T05:55:32.400Z,74.00
2023-03-19T05:58:01.779Z,83.87
2023-03-19T06:00:30.328Z,81.23
2023-03-19T06:02:59.021Z,73.40
2023-03-19T06:05:28.551Z,72.23
2023-03-19T06:07:58.562Z,84.80
2023-03-19T06:10:27.361Z,73.27
2023-03-19T06:12:56.225Z,64.03
2023-03-19T06:15:24.869Z,50.67
2023-03-19T06:17:53.419Z,49.33
2023-03-19T06:20:22.120Z,41.93
2023-03-19T06:22:50.733Z,30.30
2023-03-19T06:25:20.768Z,33.10
2023-03-19T06:27:49.328Z,31.37
2023-03-19T06:30:18.522Z,35.93
2023-03-19T06:32:47.180Z,40.17
2023-03-19T06:35:16.005Z,36.00
2023-03-19T06:37:44.677Z,37.77
2023-03-19T06:40:14.011Z,36.17
2023-03-19T06:42:46.779Z,40.33
2023-03-19T06:45:16.588Z,33.70
2023-03-19T06:47:45.788Z,36.07
2023-03-19T06:50:14.800Z,39.27
2023-03-19T06:52:43.397Z,39.00
2023-03-19T06:55:12.847Z,36.93
2023-03-19T06:57:41.707Z,30.03
2023-03-19T07:00:13.316Z,31.03
2023-03-19T07:02:41.967Z,30.43
2023-03-19T07:05:11.040Z,28.13
2023-03-19T07:07:39.556Z,25.57
2023-03-19T07:10:08.996Z,25.10
2023-03-19T07:12:37.592Z,29.33
2023-03-19T07:15:07.088Z,25.80
2023-03-19T07:17:37.134Z,29.00
2023-03-19T07:20:06.663Z,20.65
2023-03-19T07:22:35.201Z,23.63
2023-03-19T07:25:03.789Z,25.07
2023-03-19T07:27:32.381Z,53.30
2023-03-19T07:30:00.957Z,22.17
2023-03-19T07:32:29.643Z,22.50
2023-03-19T07:34:59.643Z,22.40
2023-03-19T07:37:28.410Z,22.87
2023-03-19T07:39:57.018Z,23.73
2023-03-19T07:42:25.766Z,38.55
2023-03-19T07:44:54.317Z,26.90
2023-03-19T07:47:28.950Z,24.80
2023-03-19T07:49:59.758Z,23.33
2023-03-19T07:52:28.436Z,23.67
2023-03-19T07:54:57.392Z,24.53
2023-03-19T07:57:27.275Z,26.10
2023-03-19T07:59:55.841Z,26.63
2023-03-19T08:02:24.474Z,26.87
2023-03-19T08:04:53.452Z,25.60
2023-03-19T08:07:24.343Z,22.87
2023-03-19T08:09:52.883Z,22.20
2023-03-19T08:12:21.501Z,24.73
2023-03-19T08:14:50.173Z,23.80
2023-03-19T08:17:18.855Z,22.90
2023-03-19T08:19:48.015Z,24.87
2023-03-19T08:22:17.369Z,25.50
2023-03-19T08:24:47.465Z,26.27
2023-03-19T08:27:16.187Z,24.40
2023-03-19T08:29:44.729Z,29.83
2023-03-19T08:32:13.873Z,37.70
2023-03-19T08:34:42.505Z,40.53
2023-03-19T08:37:11.138Z,40.00
2023-03-19T08:39:41.179Z,43.33
2023-03-19T08:42:11.908Z,112.60
2023-03-19T08:44:40.624Z,60.20
2023-03-19T08:47:09.243Z,58.87
2023-03-19T08:49:37.835Z,68.07
2023-03-19T08:52:07.360Z,63.80
2023-03-19T08:54:36.651Z,47.57
2023-03-19T08:57:06.696Z,60.40
2023-03-19T08:59:37.093Z,47.57
2023-03-19T09:02:06.293Z,54.93
2023-03-19T09:04:39.397Z,51.53
2023-03-19T09:07:08.304Z,63.03
2023-03-19T09:09:37.304Z,43.63
2023-03-19T09:12:07.594Z,47.10
2023-03-19T09:14:38.278Z,40.13
2023-03-19T09:17:07.652Z,39.87
2023-03-19T09:19:37.150Z,37.30
2023-03-19T09:22:07.629Z,34.40
2023-03-19T09:24:38.758Z,37.33
2023-03-19T09:27:08.960Z,33.80
2023-03-19T09:29:43.943Z,37.80
2023-03-19T09:32:12.949Z,40.30
2023-03-19T09:34:47.179Z,28.52
2023-03-19T09:37:16.142Z,34.93
2023-03-19T09:39:44.990Z,36.13
2023-03-19T09:42:33.659Z,36.70
2023-03-19T09:45:04.056Z,34.17
2023-03-19T09:47:37.253Z,29.87
2023-03-19T09:50:13.684Z,32.67
2023-03-19T09:52:46.301Z,29.53
2023-03-19T09:55:27.732Z,27.73
2023-03-19T09:57:59.147Z,26.83
2023-03-19T10:00:31.565Z,24.15
2023-03-19T10:03:07.146Z,25.33
2023-03-19T10:05:49.429Z,26.67
2023-03-19T10:08:40.914Z,25.63
2023-03-19T10:11:23.995Z,22.50
2023-03-19T10:14:08.917Z,24.23
2023-03-19T10:16:43.023Z,27.30
2023-03-19T10:19:16.488Z,27.90
2023-03-19T10:21:51.259Z,23.88
2023-03-19T10:24:34.053Z,26.05
2023-03-19T10:27:06.974Z,18.50
2023-03-19T10:30:48.779Z,24.50
2023-03-19T10:33:24.354Z,24.33
2023-03-19T10:36:04.246Z,21.80
2023-03-19T10:38:33.921Z,21.88
2023-03-19T10:41:25.790Z,23.02
2023-03-19T10:44:03.198Z,14.82
2023-03-19T10:46:42.071Z,18.60
2023-03-19T10:49:16.736Z,18.80
2023-03-19T10:51:47.446Z,20.45
2023-03-19T10:54:23.734Z,21.95
2023-03-19T10:56:53.462Z,22.38
2023-03-19T10:59:27.434Z,21.15
2023-03-19T11:02:01.008Z,21.25
2023-03-19T11:04:32.727Z,20.50
2023-03-19T11:07:10.567Z,21.52
2023-03-19T11:09:40.937Z,19.85
2023-03-19T11:12:19.660Z,19.25
2023-03-19T11:14:52.625Z,18.08
2023-03-19T11:17:26.051Z,16.73
2023-03-19T11:19:57.951Z,14.10
2023-03-19T11:22:28.389Z,15.48
2023-03-19T11:25:03.454Z,16.50
2023-03-19T11:27:35.137Z,13.77
2023-03-19T11:30:04.946Z,20.77
2023-03-19T11:32:59.433Z,20.83
2023-03-19T11:35:35.482Z,17.45
2023-03-19T11:38:06.922Z,19.48
2023-03-19T11:40:44.368Z,16.85
2023-03-19T11:43:47.048Z,19.80
2023-03-19T11:46:28.265Z,18.52
2023-03-19T11:49:27.732Z,17.33
2023-03-19T11:52:05.134Z,15.57
2023-03-19T11:54:45.718Z,17.40
2023-03-19T11:57:20.297Z,16.83
2023-03-19T12:00:03.978Z,14.43
2023-03-19T12:03:01.518Z,14.82
2023-03-19T12:05:34.701Z,15.05
2023-03-19T12:08:17.452Z,15.48
2023-03-19T12:10:57.671Z,17.13
2023-03-19T12:13:39.148Z,15.90
2023-03-19T12:16:18.707Z,14.98
2023-03-19T12:19:13.262Z,16.58
2023-03-19T12:21:54.946Z,15.38
2023-03-19T12:24:35.088Z,17.63
2023-03-19T12:27:17.768Z,16.13
2023-03-19T12:30:00.304Z,18.80
2023-03-19T12:32:40.634Z,18.42
2023-03-19T12:35:14.212Z,17.30
2023-03-19T12:37:47.486Z,15.93
2023-03-19T12:40:28.118Z,19.00
2023-03-19T12:43:01.418Z,30.70
2023-03-19T12:45:37.021Z,21.50
2023-03-19T12:48:12.513Z,24.60
2023-03-19T12:50:45.916Z,22.13
2023-03-19T12:53:24.208Z,22.75
2023-03-19T12:55:59.241Z,23.98
2023-03-19T12:58:39.146Z,26.85
2023-03-19T13:01:13.924Z,26.20
2023-03-19T13:03:52.909Z,27.85
2023-03-19T13:06:24.915Z,29.27
2023-03-19T13:09:00.394Z,23.42
2023-03-19T13:11:38.342Z,23.23
2023-03-19T13:14:16.280Z,20.13
2023-03-19T13:16:52.965Z,17.67
2023-03-19T13:19:31.502Z,17.67
2023-03-19T13:22:03.594Z,22.80
2023-03-19T13:24:35.886Z,17.83
2023-03-19T13:27:09.619Z,14.20
2023-03-19T13:29:39.613Z,15.60
2023-03-19T13:32:11.625Z,15.50
2023-03-19T13:34:40.895Z,14.98
2023-03-19T13:37:16.540Z,14.63
2023-03-19T13:39:46.807Z,20.65
2023-03-19T13:42:39.100Z,14.70
2023-03-19T13:45:31.682Z,16.17
2023-03-19T13:48:24.360Z,14.43
2023-03-19T13:51:01.340Z,17.23
2023-03-19T13:53:40.035Z,17.85
2023-03-19T13:56:29.932Z,18.25
2023-03-19T13:59:25.484Z,17.23
2023-03-19T14:01:54.501Z,21.75
2023-03-19T14:04:28.253Z,17.88
2023-03-19T14:07:02.098Z,18.42
2023-03-19T14:09:38.554Z,16.52
2023-03-19T14:12:32.365Z,15.07
2023-03-19T14:15:17.776Z,15.20
2023-03-19T14:17:56.465Z,15.93
2023-03-19T14:20:36.964Z,14.23
2023-03-19T14:23:23.615Z,15.57
2023-03-19T14:26:07.089Z,14.63
2023-03-19T14:28:56.896Z,13.70
2023-03-19T14:31:38.375Z,16.08
2023-03-19T14:34:20.096Z,15.07
2023-03-19T14:36:54.416Z,15.88
2023-03-19T14:39:25.985Z,14.15
2023-03-19T14:42:03.519Z,13.43
2023-03-19T14:45:13.889Z,13.60
2023-03-19T14:48:08.645Z,14.32
2023-03-19T14:50:55.622Z,14.35
2023-03-19T14:53:32.266Z,14.10
2023-03-19T14:56:12.137Z,14.25
2023-03-19T14:58:50.019Z,18.05
2023-03-19T15:01:28.204Z,17.33
2023-03-19T15:04:03.615Z,24.02
2023-03-19T15:06:39.551Z,17.38
2023-03-19T15:09:12.374Z,37.00
2023-03-19T15:11:55.986Z,19.63
2023-03-19T15:14:50.698Z,21.52
2023-03-19T15:17:25.036Z,19.27
2023-03-19T15:19:57.842Z,23.63
2023-03-19T15:22:31.837Z,23.40
2023-03-19T15:25:09.112Z,25.23
2023-03-19T15:27:38.156Z,29.42
2023-03-19T15:30:22.085Z,25.98
2023-03-19T15:33:04.631Z,27.30
2023-03-19T15:35:39.666Z,25.23
2023-03-19T15:38:13.394Z,26.85
2023-03-19T15:40:44.619Z,56.92
2023-03-19T15:43:15.013Z,65.88
2023-03-19T15:45:48.458Z,56.60
2023-03-19T15:48:22.775Z,39.00
2023-03-19T15:50:57.751Z,33.10
2023-03-19T15:53:28.637Z,24.60
2023-03-19T15:55:57.843Z,20.25
2023-03-19T15:58:29.557Z,20.27
2023-03-19T16:01:01.265Z,18.65
2023-03-19T16:03:39.843Z,19.15
2023-03-19T16:06:19.029Z,19.55
2023-03-19T16:08:49.477Z,17.77
2023-03-19T16:11:30.205Z,20.35
2023-03-19T16:14:03.297Z,20.17
2023-03-19T16:16:34.533Z,21.42
2023-03-19T16:19:03.675Z,25.23
2023-03-19T16:21:38.646Z,22.17
2023-03-19T16:24:16.834Z,30.55
2023-03-19T16:26:48.105Z,25.10
2023-03-19T16:29:23.304Z,28.57
2023-03-19T16:31:53.858Z,24.97
2023-03-19T16:34:37.743Z,31.20
2023-03-19T16:37:30.031Z,25.20
2023-03-19T16:40:00.733Z,22.97
2023-03-19T16:42:38.830Z,24.17
2023-03-19T16:45:21.905Z,36.13
2023-03-19T16:47:52.540Z,31.70
2023-03-19T16:50:23.149Z,34.10
2023-03-19T16:52:53.372Z,34.70
2023-03-19T16:55:25.734Z,38.30
2023-03-19T16:58:00.073Z,39.37
2023-03-19T17:00:31.937Z,46.30
2023-03-19T17:03:01.811Z,55.03
2023-03-19T17:05:31.644Z,44.13
2023-03-19T17:08:02.096Z,46.77
2023-03-19T17:10:33.259Z,51.43
2023-03-19T17:13:03.171Z,54.10
2023-03-19T17:15:37.231Z,55.47
2023-03-19T17:18:14.131Z,62.67
2023-03-19T17:20:49.819Z,63.70
2023-03-19T17:23:24.450Z,76.70
2023-03-19T17:25:53.620Z,127.90
2023-03-19T17:28:23.465Z,130.57
2023-03-19T17:30:53.045Z,116.10
2023-03-19T17:33:28.174Z,114.27
2023-03-19T17:35:59.196Z,98.83
2023-03-19T17:38:34.491Z,99.93
2023-03-19T17:41:03.233Z,98.57
2023-03-19T17:43:32.032Z,100.93
2023-03-19T17:46:00.980Z,100.07
2023-03-19T17:48:29.925Z,95.93
2023-03-19T17:51:03.011Z,86.23
2023-03-19T17:53:33.754Z,76.80
2023-03-19T17:56:02.849Z,71.50
2023-03-19T17:58:31.784Z,65.33
2023-03-19T18:01:00.600Z,55.10
2023-03-19T18:03:35.358Z,61.57
2023-03-19T18:06:07.167Z,55.33
2023-03-19T18:08:37.452Z,57.50
2023-03-19T18:11:08.019Z,64.90
2023-03-19T18:13:36.631Z,77.78
2023-03-19T18:16:06.175Z,89.20
2023-03-19T18:18:35.115Z,79.63
2023-03-19T18:21:03.967Z,62.90
2023-03-19T18:23:32.830Z,56.57
2023-03-19T18:26:03.887Z,52.93
2023-03-19T18:28:32.593Z,50.10
2023-03-19T18:31:02.099Z,46.37
2023-03-19T18:33:34.071Z,50.03
2023-03-19T18:36:03.705Z,44.47
2023-03-19T18:38:32.468Z,44.83
2023-03-19T18:41:07.155Z,47.37
2023-03-19T18:43:36.145Z,54.20
2023-03-19T18:46:04.923Z,51.37
2023-03-19T18:48:37.801Z,51.77
2023-03-19T18:51:07.023Z,43.93
2023-03-19T18:53:36.098Z,39.43
2023-03-19T18:56:13.221Z,38.40
2023-03-19T18:58:42.115Z,37.17
2023-03-19T19:01:14.857Z,39.57
2023-03-19T19:03:43.854Z,37.90
2023-03-19T19:06:20.187Z,36.03
2023-03-19T19:08:49.486Z,36.17
2023-03-19T19:11:21.212Z,33.13
2023-03-19T19:13:55.992Z,32.10
2023-03-19T19:16:31.244Z,33.60
2023-03-19T19:18:59.963Z,34.80
2023-03-19T19:21:28.663Z,44.77
2023-03-19T19:23:57.344Z,41.37
2023-03-19T19:26:31.132Z,44.50
2023-03-19T19:29:02.442Z,39.27
2023-03-19T19:31:33.715Z,40.10
2023-03-19T19:34:02.474Z,39.80
2023-03-19T19:36:31.393Z,41.80
2023-03-19T19:39:00.015Z,41.70
2023-03-19T19:41:30.639Z,37.50
2023-03-19T19:44:01.862Z,39.17
2023-03-19T19:46:31.936Z,45.77
2023-03-19T19:49:01.109Z,42.10
2023-03-19T19:51:31.201Z,40.10
2023-03-19T19:54:01.072Z,41.63
2023-03-19T19:56:32.209Z,54.93
2023-03-19T19:59:01.033Z,52.13
2023-03-19T20:01:29.702Z,43.17
2023-03-19T20:03:58.635Z,43.10
2023-03-19T20:06:28.750Z,39.03
2023-03-19T20:08:57.571Z,43.33
2023-03-19T20:11:27.083Z,40.67
2023-03-19T20:13:57.363Z,43.60
2023-03-19T20:16:27.546Z,44.23
2023-03-19T20:18:56.233Z,40.27
2023-03-19T20:21:25.067Z,42.30
2023-03-19T20:23:55.659Z,46.27
2023-03-19T20:26:25.851Z,42.87
2023-03-19T20:28:54.709Z,46.17
2023-03-19T20:31:28.134Z,40.77
2023-03-19T20:33:57.573Z,42.17
2023-03-19T20:36:26.930Z,42.00
2023-03-19T20:38:55.759Z,45.07
2023-03-19T20:41:27.361Z,45.80
2023-03-19T20:43:56.716Z,42.10
2023-03-19T20:46:26.906Z,44.07
2023-03-19T20:48:55.793Z,48.03
2023-03-19T20:51:26.769Z,49.83
2023-03-19T20:53:55.673Z,48.13
2023-03-19T20:56:25.972Z,50.37
2023-03-19T20:58:54.834Z,52.53
2023-03-19T21:01:24.224Z,53.90
2023-03-19T21:03:54.990Z,46.60
2023-03-19T21:06:27.141Z,46.57
2023-03-19T21:09:00.111Z,44.73
2023-03-19T21:11:41.262Z,46.20
2023-03-19T21:14:18.901Z,44.20
2023-03-19T21:16:47.825Z,47.20
2023-03-19T21:19:50.376Z,44.80
2023-03-19T21:22:23.320Z,47.27
2023-03-19T21:24:54.318Z,54.63
2023-03-19T21:27:25.946Z,51.57
2023-03-19T21:29:55.636Z,50.87
2023-03-19T21:32:25.179Z,55.40
2023-03-19T21:34:59.282Z,56.80
2023-03-19T21:37:28.355Z,62.90
2023-03-19T21:39:58.601Z,62.13
2023-03-19T21:42:31.030Z,61.03
2023-03-19T21:45:03.125Z,65.80
2023-03-19T21:47:32.010Z,60.97
2023-03-19T21:50:02.898Z,65.57
2023-03-19T21:52:39.917Z,61.40
2023-03-19T21:55:20.981Z,51.40
2023-03-19T21:57:50.068Z,49.87
2023-03-19T22:00:21.172Z,56.27
2023-03-19T22:02:50.927Z,59.30
2023-03-19T22:05:24.224Z,55.30
2023-03-19T22:07:54.185Z,55.93
2023-03-19T22:10:24.788Z,57.10
2023-03-19T22:12:53.890Z,56.83
2023-03-19T22:15:36.632Z,54.83
2023-03-19T22:18:07.082Z,58.90
2023-03-19T22:20:37.304Z,59.03
2023-03-19T22:23:06.501Z,60.80
2023-03-19T22:25:39.980Z,64.47
2023-03-19T22:28:17.154Z,64.10
2023-03-19T22:30:46.426Z,66.93
2023-03-19T22:33:17.371Z,58.83
2023-03-19T22:35:49.587Z,56.63
2023-03-19T22:38:19.224Z,61.50
2023-03-19T22:40:49.997Z,61.43
2023-03-19T22:43:23.626Z,59.13
2023-03-19T22:45:56.464Z,56.13
2023-03-19T22:48:26.436Z,57.77
2023-03-19T22:50:57.385Z,59.63
2023-03-19T22:53:30.013Z,51.83
2023-03-19T22:55:59.154Z,56.20
2023-03-19T22:58:28.363Z,61.53
2023-03-19T23:00:57.763Z,56.73
2023-03-19T23:03:28.495Z,52.03
2023-03-19T23:06:01.950Z,50.47
2023-03-19T23:08:31.178Z,52.73
2023-03-19T23:10:59.713Z,51.37
2023-03-19T23:13:28.663Z,51.43
2023-03-19T23:16:01.367Z,54.27
2023-03-19T23:18:32.125Z,38.23
2023-03-19T23:21:03.056Z,43.53
2023-03-19T23:23:33.882Z,46.27
2023-03-19T23:26:03.123Z,47.97
2023-03-19T23:28:35.493Z,48.83
2023-03-19T23:31:04.638Z,49.87
2023-03-19T23:33:33.462Z,50.57
2023-03-19T23:36:03.593Z,51.10
2023-03-19T23:38:33.008Z,52.70
2023-03-19T23:41:01.673Z,51.00
2023-03-19T23:43:31.174Z,51.03
2023-03-19T23:46:00.427Z,51.17
2023-03-19T23:48:34.865Z,52.30
2023-03-19T23:51:05.408Z,53.23
2023-03-19T23:53:34.521Z,51.07
2023-03-19T23:56:06.419Z,56.20
2023-03-19T23:58:40.383Z,49.43
